sensor_id;sensor_type;location;lat;lon;timestamp;noise_LAeq;noise_LA_min;noise_LA_max;noise_LA01;noise_LA95
76338;Laerm;20358;50.272;19.026;2023-04-03T00:00:59;52.26;35.59;75.56;;
76338;Laerm;20358;50.272;19.026;2023-04-03T00:04:06;49.12;35.41;72.40;;
76338;Laerm;20358;50.272;19.026;2023-04-03T00:07:12;44.84;35.08;66.92;;
76338;Laerm;20358;50.272;19.026;2023-04-03T00:10:22;62.78;35.67;85.07;;
76338;Laerm;20358;50.272;19.026;2023-04-03T00:13:28;56.39;35.01;73.53;;
76338;Laerm;20358;50.272;19.026;2023-04-03T00:16:34;45.04;35.09;62.00;;
76338;Laerm;20358;50.272;19.026;2023-04-03T00:19:40;67.05;36.42;84.43;;
76338;Laerm;20358;50.272;19.026;2023-04-03T00:22:47;49.81;35.20;71.96;;
76338;Laerm;20358;50.272;19.026;2023-04-03T00:25:56;47.97;35.41;68.28;;
76338;Laerm;20358;50.272;19.026;2023-04-03T00:29:03;48.53;35.34;74.19;;
76338;Laerm;20358;50.272;19.026;2023-04-03T00:32:09;66.94;35.02;90.21;;
76338;Laerm;20358;50.272;19.026;2023-04-03T00:35:16;61.44;35.70;80.99;;
76338;Laerm;20358;50.272;19.026;2023-04-03T00:38:22;54.03;35.43;76.40;;
76338;Laerm;20358;50.272;19.026;2023-04-03T00:41:32;56.34;35.05;78.70;;
76338;Laerm;20358;50.272;19.026;2023-04-03T00:45:28;45.31;35.62;64.57;;
76338;Laerm;20358;50.272;19.026;2023-04-03T00:48:41;47.95;35.09;67.57;;
76338;Laerm;20358;50.272;19.026;2023-04-03T00:51:48;49.02;34.73;69.35;;
76338;Laerm;20358;50.272;19.026;2023-04-03T00:55:02;49.36;34.29;70.70;;
76338;Laerm;20358;50.272;19.026;2023-04-03T00:58:14;42.47;34.60;60.83;;
76338;Laerm;20358;50.272;19.026;2023-04-03T01:01:26;42.22;34.04;63.27;;
76338;Laerm;20358;50.272;19.026;2023-04-03T01:04:39;44.12;34.12;66.93;;
76338;Laerm;20358;50.272;19.026;2023-04-03T01:07:49;48.58;35.34;72.47;;
76338;Laerm;20358;50.272;19.026;2023-04-03T01:10:57;44.96;34.61;65.39;;
76338;Laerm;20358;50.272;19.026;2023-04-03T01:14:06;49.04;34.56;70.16;;
76338;Laerm;20358;50.272;19.026;2023-04-03T01:17:28;53.12;35.13;74.69;;
76338;Laerm;20358;50.272;19.026;2023-04-03T01:21:37;46.35;34.90;70.08;;
76338;Laerm;20358;50.272;19.026;2023-04-03T01:24:47;55.34;35.69;76.53;;
76338;Laerm;20358;50.272;19.026;2023-04-03T01:27:55;52.26;35.38;75.27;;
76338;Laerm;20358;50.272;19.026;2023-04-03T01:31:19;48.30;34.98;66.08;;
76338;Laerm;20358;50.272;19.026;2023-04-03T01:34:33;48.67;35.90;73.33;;
76338;Laerm;20358;50.272;19.026;2023-04-03T01:37:39;57.83;36.46;81.89;;
76338;Laerm;20358;50.272;19.026;2023-04-03T01:40:46;54.96;34.75;80.41;;
76338;Laerm;20358;50.272;19.026;2023-04-03T01:43:52;55.30;35.70;78.31;;
76338;Laerm;20358;50.272;19.026;2023-04-03T01:46:58;53.11;35.36;80.59;;
76338;Laerm;20358;50.272;19.026;2023-04-03T01:50:09;51.65;35.42;71.28;;
76338;Laerm;20358;50.272;19.026;2023-04-03T01:53:16;46.09;35.06;67.68;;
76338;Laerm;20358;50.272;19.026;2023-04-03T01:56:22;57.66;36.20;76.80;;
76338;Laerm;20358;50.272;19.026;2023-04-03T01:59:31;49.39;35.32;72.33;;
76338;Laerm;20358;50.272;19.026;2023-04-03T02:02:37;46.86;35.69;64.76;;
76338;Laerm;20358;50.272;19.026;2023-04-03T02:05:47;50.72;35.39;70.31;;
76338;Laerm;20358;50.272;19.026;2023-04-03T02:08:52;60.68;37.29;80.97;;
76338;Laerm;20358;50.272;19.026;2023-04-03T02:11:59;54.28;36.88;75.93;;
76338;Laerm;20358;50.272;19.026;2023-04-03T02:15:08;46.08;36.10;68.48;;
76338;Laerm;20358;50.272;19.026;2023-04-03T02:18:16;60.05;35.74;81.36;;
76338;Laerm;20358;50.272;19.026;2023-04-03T02:21:25;53.18;38.16;78.92;;
76338;Laerm;20358;50.272;19.026;2023-04-03T02:24:32;56.56;36.31;76.58;;
76338;Laerm;20358;50.272;19.026;2023-04-03T02:27:38;54.16;36.82;76.65;;
76338;Laerm;20358;50.272;19.026;2023-04-03T02:30:46;50.94;37.30;72.91;;
76338;Laerm;20358;50.272;19.026;2023-04-03T02:33:52;48.31;35.16;67.43;;
76338;Laerm;20358;50.272;19.026;2023-04-03T02:37:02;49.25;37.06;69.60;;
76338;Laerm;20358;50.272;19.026;2023-04-03T02:40:09;54.36;35.88;78.77;;
76338;Laerm;20358;50.272;19.026;2023-04-03T02:43:17;52.61;37.79;72.04;;
76338;Laerm;20358;50.272;19.026;2023-04-03T02:46:23;46.63;37.78;65.37;;
76338;Laerm;20358;50.272;19.026;2023-04-03T02:49:32;49.19;36.24;67.16;;
76338;Laerm;20358;50.272;19.026;2023-04-03T02:52:40;52.70;37.79;73.06;;
76338;Laerm;20358;50.272;19.026;2023-04-03T02:55:47;50.30;37.66;69.75;;
76338;Laerm;20358;50.272;19.026;2023-04-03T02:58:54;49.68;36.52;71.75;;
76338;Laerm;20358;50.272;19.026;2023-04-03T03:02:01;47.56;37.30;67.07;;
76338;Laerm;20358;50.272;19.026;2023-04-03T03:05:08;52.19;39.63;70.66;;
76338;Laerm;20358;50.272;19.026;2023-04-03T03:08:18;47.77;38.28;69.41;;
76338;Laerm;20358;50.272;19.026;2023-04-03T03:11:24;52.12;39.92;69.70;;
76338;Laerm;20358;50.272;19.026;2023-04-03T03:14:31;51.82;40.32;69.43;;
76338;Laerm;20358;50.272;19.026;2023-04-03T03:17:37;53.55;40.45;75.47;;
76338;Laerm;20358;50.272;19.026;2023-04-03T03:20:44;56.09;39.72;75.49;;
76338;Laerm;20358;50.272;19.026;2023-04-03T03:23:52;52.57;39.02;74.41;;
76338;Laerm;20358;50.272;19.026;2023-04-03T03:26:59;58.30;42.25;81.59;;
76338;Laerm;20358;50.272;19.026;2023-04-03T03:30:07;57.77;41.19;79.12;;
76338;Laerm;20358;50.272;19.026;2023-04-03T03:33:14;49.27;40.52;67.36;;
76338;Laerm;20358;50.272;19.026;2023-04-03T03:36:20;52.71;41.11;70.78;;
76338;Laerm;20358;50.272;19.026;2023-04-03T03:39:30;59.56;41.65;80.40;;
76338;Laerm;20358;50.272;19.026;2023-04-03T03:42:35;54.36;43.03;70.35;;
76338;Laerm;20358;50.272;19.026;2023-04-03T03:45:43;51.81;39.95;69.74;;
76338;Laerm;20358;50.272;19.026;2023-04-03T03:48:49;55.37;41.16;74.38;;
76338;Laerm;20358;50.272;19.026;2023-04-03T03:51:56;53.85;42.00;78.91;;
76338;Laerm;20358;50.272;19.026;2023-04-03T03:55:06;56.56;41.89;79.84;;
76338;Laerm;20358;50.272;19.026;2023-04-03T03:58:13;53.98;41.76;73.18;;
76338;Laerm;20358;50.272;19.026;2023-04-03T04:01:18;52.14;42.35;71.29;;
76338;Laerm;20358;50.272;19.026;2023-04-03T04:04:26;53.74;43.16;72.03;;
76338;Laerm;20358;50.272;19.026;2023-04-03T04:07:32;53.23;44.84;73.17;;
76338;Laerm;20358;50.272;19.026;2023-04-03T04:10:42;52.58;42.39;68.37;;
76338;Laerm;20358;50.272;19.026;2023-04-03T04:13:50;54.59;41.71;81.20;;
76338;Laerm;20358;50.272;19.026;2023-04-03T04:17:00;54.51;42.97;70.86;;
76338;Laerm;20358;50.272;19.026;2023-04-03T04:20:08;53.15;45.31;69.10;;
76338;Laerm;20358;50.272;19.026;2023-04-03T04:23:17;68.01;42.10;78.12;;
76338;Laerm;20358;50.272;19.026;2023-04-03T04:26:28;72.99;71.46;75.90;;
76338;Laerm;20358;50.272;19.026;2023-04-03T04:29:34;72.91;71.50;74.71;;
76338;Laerm;20358;50.272;19.026;2023-04-03T04:32:43;72.93;71.24;76.25;;
76338;Laerm;20358;50.272;19.026;2023-04-03T04:35:50;73.10;71.66;76.27;;
76338;Laerm;20358;50.272;19.026;2023-04-03T04:38:56;73.04;71.37;74.89;;
76338;Laerm;20358;50.272;19.026;2023-04-03T04:42:06;73.08;71.64;76.44;;
76338;Laerm;20358;50.272;19.026;2023-04-03T04:45:19;72.96;71.52;75.13;;
76338;Laerm;20358;50.272;19.026;2023-04-03T04:48:26;73.07;71.54;78.86;;
76338;Laerm;20358;50.272;19.026;2023-04-03T04:51:34;72.99;71.54;80.33;;
76338;Laerm;20358;50.272;19.026;2023-04-03T04:54:56;71.54;46.99;74.56;;
76338;Laerm;20358;50.272;19.026;2023-04-03T04:58:05;54.72;46.63;69.70;;
76338;Laerm;20358;50.272;19.026;2023-04-03T05:01:12;54.70;47.42;72.50;;
76338;Laerm;20358;50.272;19.026;2023-04-03T05:04:29;57.07;45.69;78.62;;
76338;Laerm;20358;50.272;19.026;2023-04-03T05:07:43;55.93;44.69;78.51;;
76338;Laerm;20358;50.272;19.026;2023-04-03T05:10:56;53.46;45.27;69.34;;
76338;Laerm;20358;50.272;19.026;2023-04-03T05:14:06;62.07;46.64;83.38;;
76338;Laerm;20358;50.272;19.026;2023-04-03T05:17:12;55.47;45.26;70.84;;
76338;Laerm;20358;50.272;19.026;2023-04-03T05:20:24;55.38;45.01;71.93;;
76338;Laerm;20358;50.272;19.026;2023-04-03T05:23:30;54.96;47.05;72.38;;
76338;Laerm;20358;50.272;19.026;2023-04-03T05:26:38;54.75;45.58;72.90;;
76338;Laerm;20358;50.272;19.026;2023-04-03T05:29:48;54.90;46.04;69.25;;
76338;Laerm;20358;50.272;19.026;2023-04-03T05:32:58;59.85;46.88;78.11;;
76338;Laerm;20358;50.272;19.026;2023-04-03T05:36:28;55.74;47.29;74.44;;
76338;Laerm;20358;50.272;19.026;2023-04-03T05:39:40;59.14;46.01;80.58;;
76338;Laerm;20358;50.272;19.026;2023-04-03T05:42:46;55.44;46.79;70.46;;
76338;Laerm;20358;50.272;19.026;2023-04-03T05:45:58;55.27;47.66;72.80;;
76338;Laerm;20358;50.272;19.026;2023-04-03T05:49:04;55.51;47.93;73.55;;
76338;Laerm;20358;50.272;19.026;2023-04-03T05:52:22;54.76;44.59;76.19;;
76338;Laerm;20358;50.272;19.026;2023-04-03T05:55:29;54.57;46.76;72.09;;
76338;Laerm;20358;50.272;19.026;2023-04-03T05:58:36;55.12;47.69;71.31;;
76338;Laerm;20358;50.272;19.026;2023-04-03T06:01:44;55.23;47.91;72.63;;
76338;Laerm;20358;50.272;19.026;2023-04-03T06:04:52;55.66;46.61;73.75;;
76338;Laerm;20358;50.272;19.026;2023-04-03T06:07:58;57.50;49.02;76.00;;
76338;Laerm;20358;50.272;19.026;2023-04-03T06:11:06;55.19;45.61;72.41;;
76338;Laerm;20358;50.272;19.026;2023-04-03T06:14:12;53.98;46.25;72.29;;
76338;Laerm;20358;50.272;19.026;2023-04-03T06:17:28;54.18;47.24;69.45;;
76338;Laerm;20358;50.272;19.026;2023-04-03T06:20:34;55.23;46.85;71.30;;
76338;Laerm;20358;50.272;19.026;2023-04-03T06:23:41;54.02;45.23;70.85;;
76338;Laerm;20358;50.272;19.026;2023-04-03T06:26:47;54.35;45.95;73.62;;
76338;Laerm;20358;50.272;19.026;2023-04-03T06:29:54;53.81;45.62;72.48;;
76338;Laerm;20358;50.272;19.026;2023-04-03T06:33:03;52.85;46.96;70.45;;
76338;Laerm;20358;50.272;19.026;2023-04-03T06:36:11;54.28;46.41;72.01;;
76338;Laerm;20358;50.272;19.026;2023-04-03T06:39:20;55.46;47.72;70.66;;
76338;Laerm;20358;50.272;19.026;2023-04-03T06:42:27;54.69;45.80;70.59;;
76338;Laerm;20358;50.272;19.026;2023-04-03T06:45:43;55.41;46.15;74.77;;
76338;Laerm;20358;50.272;19.026;2023-04-03T06:48:53;54.46;45.56;69.10;;
76338;Laerm;20358;50.272;19.026;2023-04-03T06:51:59;55.34;45.77;80.83;;
76338;Laerm;20358;50.272;19.026;2023-04-03T06:55:06;53.38;46.74;67.72;;
76338;Laerm;20358;50.272;19.026;2023-04-03T06:58:13;57.54;48.53;73.45;;
76338;Laerm;20358;50.272;19.026;2023-04-03T07:01:26;55.11;45.82;72.24;;
76338;Laerm;20358;50.272;19.026;2023-04-03T07:04:35;58.49;44.68;81.61;;
76338;Laerm;20358;50.272;19.026;2023-04-03T07:07:42;54.60;44.25;69.06;;
76338;Laerm;20358;50.272;19.026;2023-04-03T07:10:47;54.62;47.36;69.26;;
76338;Laerm;20358;50.272;19.026;2023-04-03T07:13:54;55.75;47.87;72.60;;
76338;Laerm;20358;50.272;19.026;2023-04-03T07:17:00;62.88;47.24;85.24;;
76338;Laerm;20358;50.272;19.026;2023-04-03T07:20:11;59.23;47.13;79.95;;
76338;Laerm;20358;50.272;19.026;2023-04-03T07:23:18;53.97;47.87;75.22;;
76338;Laerm;20358;50.272;19.026;2023-04-03T07:26:24;55.13;45.37;74.51;;
76338;Laerm;20358;50.272;19.026;2023-04-03T07:29:30;55.32;46.03;74.21;;
76338;Laerm;20358;50.272;19.026;2023-04-03T07:32:37;54.15;44.50;74.17;;
76338;Laerm;20358;50.272;19.026;2023-04-03T07:35:46;58.55;48.42;77.46;;
76338;Laerm;20358;50.272;19.026;2023-04-03T07:38:53;60.89;47.21;82.11;;
76338;Laerm;20358;50.272;19.026;2023-04-03T07:41:58;54.25;45.50;70.86;;
76338;Laerm;20358;50.272;19.026;2023-04-03T07:45:12;56.51;46.34;74.56;;
76338;Laerm;20358;50.272;19.026;2023-04-03T07:48:21;58.78;43.65;78.45;;
76338;Laerm;20358;50.272;19.026;2023-04-03T07:51:31;53.23;42.96;69.59;;
76338;Laerm;20358;50.272;19.026;2023-04-03T07:54:38;55.06;49.11;72.44;;
76338;Laerm;20358;50.272;19.026;2023-04-03T07:57:44;54.86;44.71;71.72;;
76338;Laerm;20358;50.272;19.026;2023-04-03T08:00:53;54.63;45.65;73.56;;
76338;Laerm;20358;50.272;19.026;2023-04-03T08:04:00;53.36;43.49;69.79;;
76338;Laerm;20358;50.272;19.026;2023-04-03T08:07:08;53.91;44.89;70.92;;
76338;Laerm;20358;50.272;19.026;2023-04-03T08:10:15;58.19;46.94;76.62;;
76338;Laerm;20358;50.272;19.026;2023-04-03T08:13:22;56.06;45.61;76.14;;
76338;Laerm;20358;50.272;19.026;2023-04-03T08:16:28;60.95;45.09;85.01;;
76338;Laerm;20358;50.272;19.026;2023-04-03T08:19:34;62.41;47.67;83.96;;
76338;Laerm;20358;50.272;19.026;2023-04-03T08:22:44;53.95;44.10;68.88;;
76338;Laerm;20358;50.272;19.026;2023-04-03T08:25:50;58.70;46.03;79.58;;
76338;Laerm;20358;50.272;19.026;2023-04-03T08:28:57;60.78;44.49;82.31;;
76338;Laerm;20358;50.272;19.026;2023-04-03T08:32:03;54.67;44.22;71.95;;
76338;Laerm;20358;50.272;19.026;2023-04-03T08:35:10;63.19;44.98;85.58;;
76338;Laerm;20358;50.272;19.026;2023-04-03T08:38:19;54.22;43.81;69.86;;
76338;Laerm;20358;50.272;19.026;2023-04-03T08:41:35;55.80;44.80;73.06;;
76338;Laerm;20358;50.272;19.026;2023-04-03T08:44:52;63.33;46.06;87.07;;
76338;Laerm;20358;50.272;19.026;2023-04-03T08:48:06;56.69;45.17;72.17;;
76338;Laerm;20358;50.272;19.026;2023-04-03T08:51:16;66.69;47.06;87.80;;
76338;Laerm;20358;50.272;19.026;2023-04-03T08:54:34;59.45;44.54;80.01;;
76338;Laerm;20358;50.272;19.026;2023-04-03T08:57:44;56.25;45.97;75.61;;
76338;Laerm;20358;50.272;19.026;2023-04-03T09:00:59;60.65;43.44;88.27;;
76338;Laerm;20358;50.272;19.026;2023-04-03T09:04:13;58.13;44.97;78.43;;
76338;Laerm;20358;50.272;19.026;2023-04-03T09:07:36;62.17;44.80;78.80;;
76338;Laerm;20358;50.272;19.026;2023-04-03T09:10:48;60.39;46.03;81.55;;
76338;Laerm;20358;50.272;19.026;2023-04-03T09:14:02;54.38;45.46;69.58;;
76338;Laerm;20358;50.272;19.026;2023-04-03T09:17:29;68.30;45.26;91.96;;
76338;Laerm;20358;50.272;19.026;2023-04-03T09:20:52;65.92;48.15;85.67;;
76338;Laerm;20358;50.272;19.026;2023-04-03T09:24:04;60.65;44.76;82.52;;
76338;Laerm;20358;50.272;19.026;2023-04-03T09:27:15;62.94;47.89;84.34;;
76338;Laerm;20358;50.272;19.026;2023-04-03T09:30:23;58.69;45.08;79.29;;
76338;Laerm;20358;50.272;19.026;2023-04-03T09:33:31;64.96;45.57;84.48;;
76338;Laerm;20358;50.272;19.026;2023-04-03T09:36:43;69.92;46.94;91.12;;
76338;Laerm;20358;50.272;19.026;2023-04-03T09:39:53;65.45;48.24;87.49;;
76338;Laerm;20358;50.272;19.026;2023-04-03T09:43:20;59.12;43.68;79.02;;
76338;Laerm;20358;50.272;19.026;2023-04-03T09:46:32;63.13;46.01;82.82;;
76338;Laerm;20358;50.272;19.026;2023-04-03T09:49:40;67.27;46.10;86.98;;
76338;Laerm;20358;50.272;19.026;2023-04-03T09:52:49;56.10;45.91;73.08;;
76338;Laerm;20358;50.272;19.026;2023-04-03T09:55:56;55.94;44.54;77.16;;
76338;Laerm;20358;50.272;19.026;2023-04-03T09:59:16;54.56;45.54;71.45;;
76338;Laerm;20358;50.272;19.026;2023-04-03T10:02:36;55.75;45.30;73.78;;
76338;Laerm;20358;50.272;19.026;2023-04-03T10:05:43;55.32;42.68;77.00;;
76338;Laerm;20358;50.272;19.026;2023-04-03T10:09:00;74.09;44.44;99.02;;
76338;Laerm;20358;50.272;19.026;2023-04-03T10:12:09;60.49;43.29;83.88;;
76338;Laerm;20358;50.272;19.026;2023-04-03T10:15:20;64.86;44.21;84.29;;
76338;Laerm;20358;50.272;19.026;2023-04-03T10:18:36;63.64;46.47;84.07;;
76338;Laerm;20358;50.272;19.026;2023-04-03T10:21:55;53.87;43.93;73.77;;
76338;Laerm;20358;50.272;19.026;2023-04-03T10:25:15;58.99;44.62;82.61;;
76338;Laerm;20358;50.272;19.026;2023-04-03T10:28:34;60.37;44.16;86.96;;
76338;Laerm;20358;50.272;19.026;2023-04-03T10:32:00;58.32;46.69;82.16;;
76338;Laerm;20358;50.272;19.026;2023-04-03T10:35:23;54.91;46.75;72.44;;
76338;Laerm;20358;50.272;19.026;2023-04-03T10:38:46;55.40;45.59;75.18;;
76338;Laerm;20358;50.272;19.026;2023-04-03T10:42:08;65.00;47.75;88.11;;
76338;Laerm;20358;50.272;19.026;2023-04-03T10:45:29;58.96;46.29;77.18;;
76338;Laerm;20358;50.272;19.026;2023-04-03T10:49:05;54.71;45.31;73.22;;
76338;Laerm;20358;50.272;19.026;2023-04-03T10:52:25;64.05;44.36;84.99;;
76338;Laerm;20358;50.272;19.026;2023-04-03T10:55:46;57.41;45.85;80.16;;
76338;Laerm;20358;50.272;19.026;2023-04-03T10:59:13;59.64;44.91;77.68;;
76338;Laerm;20358;50.272;19.026;2023-04-03T11:02:26;67.02;44.60;87.81;;
76338;Laerm;20358;50.272;19.026;2023-04-03T11:05:45;61.88;45.25;81.90;;
76338;Laerm;20358;50.272;19.026;2023-04-03T11:09:01;56.13;43.16;79.28;;
76338;Laerm;20358;50.272;19.026;2023-04-03T11:12:17;55.17;44.10;73.75;;
76338;Laerm;20358;50.272;19.026;2023-04-03T11:15:32;56.01;45.20;74.86;;
76338;Laerm;20358;50.272;19.026;2023-04-03T11:18:47;62.11;45.69;85.76;;
76338;Laerm;20358;50.272;19.026;2023-04-03T11:22:09;61.49;41.90;80.97;;
76338;Laerm;20358;50.272;19.026;2023-04-03T11:25:22;59.64;45.47;78.91;;
76338;Laerm;20358;50.272;19.026;2023-04-03T11:28:29;61.20;46.11;84.90;;
76338;Laerm;20358;50.272;19.026;2023-04-03T11:32:26;54.63;43.48;75.15;;
76338;Laerm;20358;50.272;19.026;2023-04-03T11:35:35;57.92;44.75;80.46;;
76338;Laerm;20358;50.272;19.026;2023-04-03T11:38:52;56.14;44.97;74.57;;
76338;Laerm;20358;50.272;19.026;2023-04-03T11:42:17;53.99;44.94;69.64;;
76338;Laerm;20358;50.272;19.026;2023-04-03T11:45:37;60.14;45.78;79.54;;
76338;Laerm;20358;50.272;19.026;2023-04-03T11:48:51;54.66;45.22;72.70;;
76338;Laerm;20358;50.272;19.026;2023-04-03T11:51:59;54.01;43.26;72.78;;
76338;Laerm;20358;50.272;19.026;2023-04-03T11:59:23;53.91;42.53;76.26;;
76338;Laerm;20358;50.272;19.026;2023-04-03T12:02:37;61.22;43.04;87.54;;
76338;Laerm;20358;50.272;19.026;2023-04-03T12:10:18;58.62;44.33;76.65;;
76338;Laerm;20358;50.272;19.026;2023-04-03T12:13:35;59.79;44.22;84.71;;
76338;Laerm;20358;50.272;19.026;2023-04-03T12:16:46;52.80;40.52;71.45;;
76338;Laerm;20358;50.272;19.026;2023-04-03T12:19:55;54.42;43.02;71.36;;
76338;Laerm;20358;50.272;19.026;2023-04-03T12:23:08;60.75;42.73;77.36;;
76338;Laerm;20358;50.272;19.026;2023-04-03T12:26:41;55.36;44.94;80.76;;
76338;Laerm;20358;50.272;19.026;2023-04-03T12:30:01;58.57;46.60;78.89;;
76338;Laerm;20358;50.272;19.026;2023-04-03T12:33:28;63.49;46.46;91.17;;
76338;Laerm;20358;50.272;19.026;2023-04-03T12:36:52;57.14;45.92;76.65;;
76338;Laerm;20358;50.272;19.026;2023-04-03T12:40:15;62.25;48.60;84.12;;
76338;Laerm;20358;50.272;19.026;2023-04-03T12:43:49;63.52;46.80;86.56;;
76338;Laerm;20358;50.272;19.026;2023-04-03T12:47:16;68.88;46.80;94.20;;
76338;Laerm;20358;50.272;19.026;2023-04-03T12:50:30;57.40;42.58;76.41;;
76338;Laerm;20358;50.272;19.026;2023-04-03T12:53:38;54.35;44.17;69.15;;
76338;Laerm;20358;50.272;19.026;2023-04-03T12:56:45;61.11;43.86;80.06;;
76338;Laerm;20358;50.272;19.026;2023-04-03T12:59:55;57.58;45.43;74.96;;
76338;Laerm;20358;50.272;19.026;2023-04-03T13:03:03;57.04;46.11;85.33;;
76338;Laerm;20358;50.272;19.026;2023-04-03T13:06:19;64.77;45.28;87.30;;
76338;Laerm;20358;50.272;19.026;2023-04-03T13:09:28;57.51;46.14;71.60;;
76338;Laerm;20358;50.272;19.026;2023-04-03T13:12:47;58.51;46.20;76.49;;
76338;Laerm;20358;50.272;19.026;2023-04-03T13:15:56;60.28;46.80;79.59;;
76338;Laerm;20358;50.272;19.026;2023-04-03T13:19:03;55.77;45.02;72.45;;
76338;Laerm;20358;50.272;19.026;2023-04-03T13:22:28;60.46;43.05;81.29;;
76338;Laerm;20358;50.272;19.026;2023-04-03T13:25:43;61.21;45.48;81.58;;
76338;Laerm;20358;50.272;19.026;2023-04-03T13:28:50;55.34;45.45;78.20;;
76338;Laerm;20358;50.272;19.026;2023-04-03T13:32:03;55.80;42.60;76.55;;
76338;Laerm;20358;50.272;19.026;2023-04-03T13:35:28;59.21;46.13;77.71;;
76338;Laerm;20358;50.272;19.026;2023-04-03T13:38:36;60.10;44.75;77.51;;
76338;Laerm;20358;50.272;19.026;2023-04-03T13:41:48;57.78;44.51;83.51;;
76338;Laerm;20358;50.272;19.026;2023-04-03T13:45:20;55.18;45.11;70.65;;
76338;Laerm;20358;50.272;19.026;2023-04-03T13:48:37;55.14;42.87;71.26;;
76338;Laerm;20358;50.272;19.026;2023-04-03T13:51:49;60.69;43.82;79.00;;
76338;Laerm;20358;50.272;19.026;2023-04-03T13:55:22;58.60;42.51;79.86;;
76338;Laerm;20358;50.272;19.026;2023-04-03T13:58:31;60.76;45.27;84.01;;
76338;Laerm;20358;50.272;19.026;2023-04-03T14:01:46;55.12;45.68;69.82;;
76338;Laerm;20358;50.272;19.026;2023-04-03T14:05:00;62.63;43.87;84.55;;
76338;Laerm;20358;50.272;19.026;2023-04-03T14:08:06;60.39;44.27;80.56;;
76338;Laerm;20358;50.272;19.026;2023-04-03T14:11:19;62.83;47.11;81.56;;
76338;Laerm;20358;50.272;19.026;2023-04-03T14:14:32;62.25;45.60;80.10;;
76338;Laerm;20358;50.272;19.026;2023-04-03T14:17:39;58.39;44.38;78.72;;
76338;Laerm;20358;50.272;19.026;2023-04-03T14:20:49;67.20;46.49;88.36;;
76338;Laerm;20358;50.272;19.026;2023-04-03T14:23:56;56.24;46.56;73.93;;
76338;Laerm;20358;50.272;19.026;2023-04-03T14:27:02;54.68;45.81;71.62;;
76338;Laerm;20358;50.272;19.026;2023-04-03T14:30:16;60.82;45.39;80.82;;
76338;Laerm;20358;50.272;19.026;2023-04-03T14:33:23;62.03;45.64;79.77;;
76338;Laerm;20358;50.272;19.026;2023-04-03T14:36:34;64.44;45.63;83.94;;
76338;Laerm;20358;50.272;19.026;2023-04-03T14:39:42;57.90;46.01;81.77;;
76338;Laerm;20358;50.272;19.026;2023-04-03T14:42:49;59.60;41.78;78.76;;
76338;Laerm;20358;50.272;19.026;2023-04-03T14:45:57;65.36;45.65;89.61;;
76338;Laerm;20358;50.272;19.026;2023-04-03T14:49:14;55.12;43.84;74.76;;
76338;Laerm;20358;50.272;19.026;2023-04-03T14:52:27;58.97;42.53;80.09;;
76338;Laerm;20358;50.272;19.026;2023-04-03T14:55:34;56.65;43.97;75.59;;
76338;Laerm;20358;50.272;19.026;2023-04-03T14:58:40;66.00;45.76;87.96;;
76338;Laerm;20358;50.272;19.026;2023-04-03T15:01:47;58.10;45.77;78.10;;
76338;Laerm;20358;50.272;19.026;2023-04-03T15:04:53;63.24;47.73;82.46;;
76338;Laerm;20358;50.272;19.026;2023-04-03T15:08:03;58.48;44.15;75.32;;
76338;Laerm;20358;50.272;19.026;2023-04-03T15:11:10;57.59;47.22;76.14;;
76338;Laerm;20358;50.272;19.026;2023-04-03T15:14:17;64.38;44.90;88.29;;
76338;Laerm;20358;50.272;19.026;2023-04-03T15:17:40;59.28;45.04;77.28;;
76338;Laerm;20358;50.272;19.026;2023-04-03T15:20:48;55.58;43.66;74.17;;
76338;Laerm;20358;50.272;19.026;2023-04-03T15:23:57;57.67;44.58;81.46;;
76338;Laerm;20358;50.272;19.026;2023-04-03T15:27:04;61.57;41.34;83.46;;
76338;Laerm;20358;50.272;19.026;2023-04-03T15:30:15;65.27;45.11;93.40;;
76338;Laerm;20358;50.272;19.026;2023-04-03T15:33:23;58.87;46.22;76.06;;
76338;Laerm;20358;50.272;19.026;2023-04-03T15:36:29;58.94;41.94;78.35;;
76338;Laerm;20358;50.272;19.026;2023-04-03T15:39:39;58.58;46.74;81.58;;
76338;Laerm;20358;50.272;19.026;2023-04-03T15:42:45;57.17;46.85;77.71;;
76338;Laerm;20358;50.272;19.026;2023-04-03T15:45:58;55.06;44.30;73.51;;
76338;Laerm;20358;50.272;19.026;2023-04-03T15:49:05;56.52;42.86;78.15;;
76338;Laerm;20358;50.272;19.026;2023-04-03T15:52:12;57.57;41.63;73.39;;
76338;Laerm;20358;50.272;19.026;2023-04-03T15:55:21;55.85;42.91;74.04;;
76338;Laerm;20358;50.272;19.026;2023-04-03T15:58:27;55.00;44.33;72.84;;
76338;Laerm;20358;50.272;19.026;2023-04-03T16:01:34;59.09;43.35;78.53;;
76338;Laerm;20358;50.272;19.026;2023-04-03T16:04:41;55.45;43.53;70.82;;
76338;Laerm;20358;50.272;19.026;2023-04-03T16:07:47;56.99;41.90;74.73;;
76338;Laerm;20358;50.272;19.026;2023-04-03T16:10:57;57.49;43.72;79.69;;
76338;Laerm;20358;50.272;19.026;2023-04-03T16:14:03;52.34;43.72;65.92;;
76338;Laerm;20358;50.272;19.026;2023-04-03T16:17:10;56.95;45.02;79.10;;
76338;Laerm;20358;50.272;19.026;2023-04-03T16:20:17;62.02;44.05;83.28;;
76338;Laerm;20358;50.272;19.026;2023-04-03T16:23:25;58.83;45.14;79.01;;
76338;Laerm;20358;50.272;19.026;2023-04-03T16:26:34;53.95;42.27;69.25;;
76338;Laerm;20358;50.272;19.026;2023-04-03T16:29:41;53.04;41.60;68.49;;
76338;Laerm;20358;50.272;19.026;2023-04-03T16:32:47;56.25;46.15;72.63;;
76338;Laerm;20358;50.272;19.026;2023-04-03T16:35:54;59.34;45.10;77.12;;
76338;Laerm;20358;50.272;19.026;2023-04-03T16:39:00;60.97;43.89;81.90;;
76338;Laerm;20358;50.272;19.026;2023-04-03T16:42:10;61.77;42.60;85.02;;
76338;Laerm;20358;50.272;19.026;2023-04-03T16:45:16;57.97;45.35;80.68;;
76338;Laerm;20358;50.272;19.026;2023-04-03T16:48:23;51.59;39.96;65.88;;
76338;Laerm;20358;50.272;19.026;2023-04-03T16:51:30;56.04;41.90;82.97;;
76338;Laerm;20358;50.272;19.026;2023-04-03T16:54:37;55.59;41.97;69.72;;
76338;Laerm;20358;50.272;19.026;2023-04-03T16:57:46;54.21;44.00;71.11;;
76338;Laerm;20358;50.272;19.026;2023-04-03T17:00:53;56.71;41.30;76.70;;
76338;Laerm;20358;50.272;19.026;2023-04-03T17:03:59;52.60;43.07;66.93;;
76338;Laerm;20358;50.272;19.026;2023-04-03T17:07:06;55.59;40.47;72.62;;
76338;Laerm;20358;50.272;19.026;2023-04-03T17:10:14;66.48;43.41;87.35;;
76338;Laerm;20358;50.272;19.026;2023-04-03T17:13:24;58.05;39.68;77.51;;
76338;Laerm;20358;50.272;19.026;2023-04-03T17:16:36;52.30;40.06;69.41;;
76338;Laerm;20358;50.272;19.026;2023-04-03T17:19:44;54.07;42.02;72.96;;
76338;Laerm;20358;50.272;19.026;2023-04-03T17:22:51;52.62;42.58;68.06;;
76338;Laerm;20358;50.272;19.026;2023-04-03T17:25:58;52.59;42.39;67.27;;
76338;Laerm;20358;50.272;19.026;2023-04-03T17:29:07;54.16;40.82;72.19;;
76338;Laerm;20358;50.272;19.026;2023-04-03T17:32:14;53.56;40.16;72.39;;
76338;Laerm;20358;50.272;19.026;2023-04-03T17:35:20;51.92;40.15;74.70;;
76338;Laerm;20358;50.272;19.026;2023-04-03T17:38:27;60.97;41.98;80.26;;
76338;Laerm;20358;50.272;19.026;2023-04-03T17:41:33;62.82;41.02;85.18;;